Time;durP1;ratioP1;P1;durP2;ratioP2;P2;SDS_P1;SDS_P2;PMS_P1;PMS_P2;Temp;Humidity;BMP_temperature;BMP_pressure;BME280_temperature;BME280_humidity;BME280_pressure;Samples;Min_cycle;Max_cycle;Signal;HPM_P1;HPM_P2
2021/05/12 00:01:59;;;;;;;4.15;3.85;;;17.10;99.90;;;;;;5052779;28;20520;-70
2021/05/12 00:04:26;;;;;;;3.65;3.35;;;17.00;99.90;;;;;;5060500;28;20194;-70
2021/05/12 00:06:52;;;;;;;4.55;3.95;;;17.00;99.90;;;;;;5058750;28;20235;-70
2021/05/12 00:09:19;;;;;;;4.07;3.53;;;17.00;99.90;;;;;;5063733;28;20210;-70
2021/05/12 00:11:45;;;;;;;5.75;4.40;;;17.00;99.90;;;;;;5052568;28;20213;-70
2021/05/12 00:14:11;;;;;;;5.22;4.82;;;17.00;99.90;;;;;;5053082;28;20219;-70
2021/05/12 00:16:37;;;;;;;4.75;4.35;;;17.00;99.90;;;;;;5052172;28;20202;-70
2021/05/12 00:19:04;;;;;;;5.68;4.78;;;17.00;99.90;;;;;;5068426;28;20230;-70
2021/05/12 00:21:35;;;;;;;4.00;3.60;;;17.00;99.90;;;;;;5070091;28;20190;-70
2021/05/12 00:24:01;;;;;;;5.30;4.72;;;17.00;99.90;;;;;;5057416;28;20210;-71
2021/05/12 00:26:35;;;;;;;5.03;4.63;;;17.00;99.90;;;;;;5070616;28;20194;-71
2021/05/12 00:29:02;;;;;;;5.45;4.68;;;17.00;99.90;;;;;;5070090;28;20190;-71
2021/05/12 00:31:28;;;;;;;5.28;4.78;;;17.00;99.90;;;;;;5051421;28;20914;-71
2021/05/12 00:33:54;;;;;;;5.05;4.30;;;17.00;99.90;;;;;;5056249;28;20233;-71
2021/05/12 00:36:20;;;;;;;6.28;5.18;;;16.90;99.90;;;;;;5058361;28;20215;-70
2021/05/12 00:38:47;;;;;;;5.90;4.88;;;16.90;99.90;;;;;;5065912;28;20220;-70
2021/05/12 00:41:14;;;;;;;4.60;4.20;;;16.90;99.90;;;;;;5065477;28;20252;-70
2021/05/12 00:43:40;;;;;;;5.03;4.38;;;16.90;99.90;;;;;;5058344;28;20826;-70
2021/05/12 00:46:06;;;;;;;4.53;4.10;;;16.90;99.90;;;;;;5066971;28;20213;-70
2021/05/12 00:48:33;;;;;;;5.28;4.78;;;16.90;99.90;;;;;;5068564;28;20252;-70
2021/05/12 00:50:59;;;;;;;6.47;5.93;;;16.90;99.90;;;;;;5067982;28;20207;-70
2021/05/12 00:53:26;;;;;;;4.50;4.10;;;16.80;99.90;;;;;;5068060;28;20214;-70
2021/05/12 00:55:53;;;;;;;4.68;4.25;;;16.80;99.90;;;;;;5065973;28;20202;-70
2021/05/12 00:58:19;;;;;;;5.13;4.63;;;16.80;99.90;;;;;;5069736;28;20669;-70
2021/05/12 01:00:45;;;;;;;5.60;4.82;;;16.80;99.90;;;;;;5061732;28;20206;-71
2021/05/12 01:03:12;;;;;;;5.45;4.95;;;16.80;99.90;;;;;;5053813;28;20194;-70
2021/05/12 01:05:57;;;;;;;5.07;4.63;;;16.80;99.90;;;;;;5069501;28;20230;-71
2021/05/12 01:08:23;;;;;;;5.50;5.00;;;16.80;99.90;;;;;;5054520;28;20846;-71
2021/05/12 01:10:49;;;;;;;5.22;4.70;;;16.80;99.90;;;;;;5064793;28;20255;-71
2021/05/12 01:13:16;;;;;;;6.00;4.90;;;16.80;99.90;;;;;;5058164;28;20219;-71
2021/05/12 01:15:44;;;;;;;5.40;4.95;;;16.70;99.90;;;;;;5066130;28;20240;-71
2021/05/12 01:18:12;;;;;;;5.13;4.63;;;16.80;99.90;;;;;;5059797;28;20764;-71
2021/05/12 01:20:54;;;;;;;4.70;4.30;;;16.70;99.90;;;;;;5067532;28;20230;-71
2021/05/12 01:23:23;;;;;;;5.50;5.00;;;16.70;99.90;;;;;;5056717;28;20187;-71
2021/05/12 01:25:49;;;;;;;4.90;4.50;;;16.70;99.90;;;;;;5059867;28;20199;-71
2021/05/12 01:28:17;;;;;;;5.90;5.50;;;16.70;99.90;;;;;;5056695;28;20203;-71
2021/05/12 01:30:54;;;;;;;6.18;5.57;;;16.70;99.90;;;;;;5059484;28;20198;-70
2021/05/12 01:33:20;;;;;;;4.90;4.50;;;16.70;99.90;;;;;;5059824;28;20240;-70
2021/05/12 01:35:47;;;;;;;5.40;5.00;;;16.70;99.90;;;;;;5058004;28;20210;-70
2021/05/12 01:38:14;;;;;;;5.93;4.38;;;16.70;99.90;;;;;;5064113;28;20601;-71
2021/05/12 01:40:40;;;;;;;5.13;4.72;;;16.70;99.90;;;;;;5056029;28;20198;-70
2021/05/12 01:43:07;;;;;;;6.00;5.40;;;16.70;99.90;;;;;;5053492;28;20202;-71
2021/05/12 01:45:33;;;;;;;5.93;4.70;;;16.60;99.90;;;;;;5055848;28;20233;-71
2021/05/12 01:48:00;;;;;;;5.80;5.05;;;16.60;99.90;;;;;;5055530;28;20582;-70
2021/05/12 01:50:26;;;;;;;5.10;4.70;;;16.60;99.90;;;;;;5062470;28;20213;-71
2021/05/12 01:52:53;;;;;;;4.82;4.30;;;16.60;99.90;;;;;;5057622;28;20218;-70
2021/05/12 01:55:20;;;;;;;4.95;4.30;;;16.60;99.90;;;;;;5057094;28;20221;-71
2021/05/12 01:57:46;;;;;;;5.88;4.75;;;16.60;99.90;;;;;;5060673;28;20201;-71
2021/05/12 02:00:24;;;;;;;8.07;4.95;;;16.60;99.90;;;;;;5057435;28;20278;-70
2021/05/12 02:02:51;;;;;;;4.40;4.00;;;16.60;99.90;;;;;;5054576;28;20218;-71
2021/05/12 02:05:18;;;;;;;4.80;4.35;;;16.60;99.90;;;;;;5053104;28;20953;-70
2021/05/12 02:07:47;;;;;;;4.43;4.10;;;16.60;99.90;;;;;;5050510;28;20199;-70
2021/05/12 02:10:14;;;;;;;4.40;3.92;;;16.60;99.90;;;;;;5066351;28;20191;-71
2021/05/12 02:12:40;;;;;;;5.25;4.80;;;16.50;99.90;;;;;;5068816;28;20280;-71
2021/05/12 02:15:09;;;;;;;4.95;4.55;;;16.50;99.90;;;;;;5069331;28;20260;-71
2021/05/12 02:17:35;;;;;;;5.35;4.85;;;16.50;99.90;;;;;;5065242;28;20259;-71
2021/05/12 02:20:02;;;;;;;4.68;4.28;;;16.50;99.90;;;;;;5060126;28;20226;-71
2021/05/12 02:22:28;;;;;;;4.78;4.38;;;16.50;99.90;;;;;;5067194;28;20577;-71
2021/05/12 02:24:54;;;;;;;4.75;4.35;;;16.50;99.90;;;;;;5057080;28;20198;-71
2021/05/12 02:27:21;;;;;;;4.95;4.30;;;16.50;99.90;;;;;;5057328;28;20199;-70
2021/05/12 02:29:47;;;;;;;5.72;5.22;;;16.50;99.90;;;;;;5061389;28;20207;-70
2021/05/12 02:32:13;;;;;;;6.93;4.78;;;16.50;99.90;;;;;;5062128;28;20202;-70
2021/05/12 02:34:40;;;;;;;5.57;5.07;;;16.50;99.90;;;;;;5072346;28;20225;-70
2021/05/12 02:37:06;;;;;;;5.72;4.90;;;16.50;99.90;;;;;;5076787;28;20202;-70
2021/05/12 02:39:32;;;;;;;5.28;4.70;;;16.50;99.90;;;;;;5071229;28;20198;-71
2021/05/12 02:41:59;;;;;;;5.00;4.60;;;16.50;99.90;;;;;;5065198;28;20206;-70
2021/05/12 02:44:26;;;;;;;5.60;4.57;;;16.50;99.90;;;;;;5070405;28;20868;-70
2021/05/12 02:46:52;;;;;;;5.28;4.45;;;16.50;99.90;;;;;;5068160;28;20205;-71
2021/05/12 02:49:18;;;;;;;5.68;5.10;;;16.50;99.90;;;;;;5060724;28;20218;-71
2021/05/12 02:51:44;;;;;;;4.72;4.32;;;16.40;99.90;;;;;;5065036;28;20202;-71
2021/05/12 02:54:10;;;;;;;5.32;4.93;;;16.40;99.90;;;;;;5065729;28;20222;-71
2021/05/12 02:56:37;;;;;;;9.48;5.65;;;16.40;99.90;;;;;;5063070;28;20621;-71
2021/05/12 02:59:03;;;;;;;6.10;5.43;;;16.40;99.90;;;;;;5063895;28;20198;-71
2021/05/12 03:01:30;;;;;;;5.70;5.15;;;16.40;99.90;;;;;;5066146;28;20644;-72
2021/05/12 03:03:56;;;;;;;6.25;5.75;;;16.40;99.90;;;;;;5059348;28;20543;-71
2021/05/12 03:06:23;;;;;;;7.15;6.63;;;16.40;99.90;;;;;;5056233;28;20199;-71
2021/05/12 03:08:49;;;;;;;7.95;6.53;;;16.40;99.90;;;;;;5060936;28;20617;-71
2021/05/12 03:11:15;;;;;;;8.77;6.18;;;16.40;99.90;;;;;;5074311;28;20206;-71
2021/05/12 03:13:41;;;;;;;6.43;5.82;;;16.40;99.90;;;;;;5069525;28;20588;-71
2021/05/12 03:16:07;;;;;;;9.93;8.23;;;16.40;99.90;;;;;;5058085;28;20248;-70
2021/05/12 03:18:34;;;;;;;5.43;4.93;;;16.40;99.90;;;;;;5056757;28;20229;-72
2021/05/12 03:21:01;;;;;;;6.65;6.00;;;16.30;99.90;;;;;;5073528;28;20197;-71
2021/05/12 03:23:27;;;;;;;7.47;6.85;;;16.30;99.90;;;;;;5069518;28;20191;-70
2021/05/12 03:25:53;;;;;;;5.57;5.03;;;16.40;99.90;;;;;;5075253;28;20198;-70
2021/05/12 03:28:19;;;;;;;5.60;5.00;;;16.30;99.90;;;;;;5074205;28;20194;-72
2021/05/12 03:30:46;;;;;;;6.80;6.15;;;16.30;99.90;;;;;;5076391;28;20233;-71
2021/05/12 03:33:12;;;;;;;6.63;6.13;;;16.30;99.90;;;;;;5058197;28;20215;-71
2021/05/12 03:35:41;;;;;;;7.82;6.50;;;16.30;99.90;;;;;;5067934;28;20205;-71
2021/05/12 03:38:08;;;;;;;6.85;6.25;;;16.30;99.90;;;;;;5071471;28;20205;-71
2021/05/12 03:40:35;;;;;;;8.13;6.43;;;16.30;99.90;;;;;;5062945;28;20195;-70
2021/05/12 03:43:01;;;;;;;7.50;6.80;;;16.30;99.90;;;;;;5061894;28;20205;-70
2021/05/12 03:45:29;;;;;;;7.95;7.25;;;16.30;99.90;;;;;;5068540;28;20630;-71
2021/05/12 03:47:55;;;;;;;8.77;7.88;;;16.30;99.90;;;;;;5051310;28;20202;-71
2021/05/12 03:50:23;;;;;;;7.80;7.03;;;16.30;99.90;;;;;;5053352;28;20199;-72
2021/05/12 03:52:51;;;;;;;7.75;7.05;;;16.20;99.90;;;;;;5055873;28;20646;-71
2021/05/12 03:55:17;;;;;;;7.13;6.45;;;16.20;99.90;;;;;;5068770;28;20288;-71
2021/05/12 03:57:45;;;;;;;7.35;6.63;;;16.20;99.90;;;;;;5066253;28;20626;-71
2021/05/12 04:00:13;;;;;;;7.10;6.35;;;16.20;99.90;;;;;;5066738;28;20700;-71
2021/05/12 04:02:40;;;;;;;7.38;6.55;;;16.20;99.90;;;;;;5062797;28;20685;-71
2021/05/12 04:05:07;;;;;;;7.63;6.88;;;16.20;99.90;;;;;;5066227;28;20201;-71
2021/05/12 04:07:33;;;;;;;8.63;7.82;;;16.20;99.90;;;;;;5052780;28;20228;-71
2021/05/12 04:10:01;;;;;;;9.63;6.32;;;16.20;99.90;;;;;;5060398;28;20209;-71
2021/05/12 04:12:27;;;;;;;7.93;7.13;;;16.20;99.90;;;;;;5060622;28;20207;-70
2021/05/12 04:14:53;;;;;;;7.78;7.00;;;16.20;99.90;;;;;;5055258;28;20225;-70
2021/05/12 04:17:19;;;;;;;8.02;7.32;;;16.20;99.90;;;;;;5053596;28;20209;-70
2021/05/12 04:19:45;;;;;;;9.43;7.60;;;16.20;99.90;;;;;;5065911;28;20230;-70
2021/05/12 04:22:13;;;;;;;7.80;7.10;;;16.10;99.90;;;;;;5066811;28;20249;-71
2021/05/12 04:24:40;;;;;;;7.57;6.88;;;16.20;99.90;;;;;;5059189;28;20190;-71
2021/05/12 04:27:07;;;;;;;7.68;6.90;;;16.20;99.90;;;;;;5058451;28;20202;-70
2021/05/12 04:29:35;;;;;;;6.65;6.05;;;16.10;99.90;;;;;;5060331;28;20202;-70
2021/05/12 04:32:02;;;;;;;8.35;7.55;;;16.10;99.90;;;;;;5052748;28;20201;-70
2021/05/12 04:34:28;;;;;;;6.82;6.22;;;16.10;99.90;;;;;;5052758;28;20845;-72
2021/05/12 04:36:54;;;;;;;8.18;7.38;;;16.10;99.90;;;;;;5057627;28;20198;-71
2021/05/12 04:39:20;;;;;;;6.63;6.03;;;16.10;99.90;;;;;;5059317;28;20611;-71
2021/05/12 04:41:47;;;;;;;8.07;6.78;;;16.10;99.90;;;;;;5056053;28;20548;-71
2021/05/12 04:44:14;;;;;;;7.65;6.93;;;16.10;99.90;;;;;;5057035;28;20199;-72
2021/05/12 04:46:41;;;;;;;7.60;6.50;;;16.10;99.90;;;;;;5070303;28;20199;-72
2021/05/12 04:49:08;;;;;;;7.80;7.00;;;16.10;99.90;;;;;;5062352;28;20230;-71
2021/05/12 04:51:35;;;;;;;8.75;6.45;;;16.00;99.90;;;;;;5051177;28;20282;-72
2021/05/12 04:54:02;;;;;;;8.40;7.55;;;16.00;99.90;;;;;;5052008;28;20229;-72
2021/05/12 04:56:28;;;;;;;7.78;6.82;;;16.00;99.90;;;;;;5067870;28;20260;-72
2021/05/12 04:58:54;;;;;;;6.88;6.28;;;16.10;99.90;;;;;;5070145;28;20194;-72
2021/05/12 05:01:21;;;;;;;6.78;6.18;;;16.10;99.90;;;;;;5062592;28;20209;-72
2021/05/12 05:03:48;;;;;;;8.25;6.25;;;16.10;99.90;;;;;;5066505;28;20236;-73
2021/05/12 05:06:15;;;;;;;6.70;6.10;;;16.00;99.90;;;;;;5066797;28;20194;-72
2021/05/12 05:08:41;;;;;;;7.40;6.50;;;16.10;99.90;;;;;;5070312;28;20581;-72
2021/05/12 05:11:08;;;;;;;6.57;5.88;;;16.00;99.90;;;;;;5067193;28;20202;-72
2021/05/12 05:13:35;;;;;;;7.55;6.22;;;16.10;99.90;;;;;;5068515;28;20654;-72
2021/05/12 05:16:01;;;;;;;7.40;6.40;;;16.00;99.90;;;;;;5060922;28;20202;-72
2021/05/12 05:18:28;;;;;;;7.32;6.63;;;16.00;99.90;;;;;;5057030;28;20243;-72
2021/05/12 05:20:55;;;;;;;6.55;5.68;;;16.00;99.90;;;;;;5066957;28;20563;-72
2021/05/12 05:23:22;;;;;;;7.07;6.35;;;16.00;99.90;;;;;;5062310;28;20187;-72
2021/05/12 05:25:50;;;;;;;6.72;6.15;;;16.00;99.90;;;;;;5056512;28;20194;-72
2021/05/12 05:28:16;;;;;;;8.57;7.68;;;16.00;99.90;;;;;;5062792;28;20209;-72
2021/05/12 05:30:42;;;;;;;7.85;6.35;;;16.10;99.90;;;;;;5064055;28;20637;-72
2021/05/12 05:33:08;;;;;;;8.27;6.97;;;16.00;99.90;;;;;;5064935;28;20581;-72
2021/05/12 05:35:36;;;;;;;9.93;8.25;;;16.00;99.90;;;;;;5065672;28;20240;-72
2021/05/12 05:38:02;;;;;;;8.70;7.82;;;16.00;99.90;;;;;;5056730;28;20217;-71
2021/05/12 05:40:28;;;;;;;7.47;6.15;;;16.00;99.90;;;;;;5061597;28;20201;-71
2021/05/12 05:42:58;;;;;;;7.35;6.65;;;16.00;99.90;;;;;;5069336;28;20729;-70
2021/05/12 05:45:25;;;;;;;10.82;6.65;;;16.00;99.90;;;;;;5070734;28;20190;-70
2021/05/12 05:47:51;;;;;;;7.95;5.78;;;16.10;99.90;;;;;;5066749;28;20247;-71
2021/05/12 05:50:17;;;;;;;6.13;5.60;;;16.10;99.90;;;;;;5061314;28;20190;-71
2021/05/12 05:52:44;;;;;;;5.57;4.97;;;16.10;99.90;;;;;;5067913;28;20547;-71
2021/05/12 05:55:12;;;;;;;6.20;5.60;;;16.20;99.90;;;;;;5067548;28;20225;-71
2021/05/12 05:57:38;;;;;;;6.22;5.63;;;16.20;99.90;;;;;;5069485;28;20198;-71
2021/05/12 06:00:06;;;;;;;4.70;4.30;;;16.20;99.90;;;;;;5070718;28;20232;-72
2021/05/12 06:02:33;;;;;;;6.85;5.30;;;16.30;99.90;;;;;;5066140;28;20209;-71
2021/05/12 06:04:59;;;;;;;7.25;5.20;;;16.40;99.90;;;;;;5058556;28;20528;-71
2021/05/12 06:07:25;;;;;;;5.38;4.05;;;16.50;99.90;;;;;;5061306;28;20551;-71
2021/05/12 06:09:52;;;;;;;4.63;4.22;;;16.50;99.90;;;;;;5064470;28;20648;-72
2021/05/12 06:12:18;;;;;;;7.00;4.63;;;16.60;99.90;;;;;;5050458;28;20210;-71
2021/05/12 06:14:44;;;;;;;9.25;4.60;;;16.70;99.90;;;;;;5060930;28;20209;-72
2021/05/12 06:17:11;;;;;;;5.15;4.15;;;16.80;99.90;;;;;;5061730;28;20195;-71
2021/05/12 06:19:37;;;;;;;6.70;4.85;;;16.90;99.90;;;;;;5066049;28;20226;-71
2021/05/12 06:22:03;;;;;;;5.47;4.30;;;16.90;99.90;;;;;;5060032;28;20521;-71
2021/05/12 06:24:29;;;;;;;5.25;4.07;;;17.00;99.90;;;;;;5050481;28;20202;-71
2021/05/12 06:26:57;;;;;;;3.83;3.47;;;17.10;99.90;;;;;;5060271;28;20559;-71
2021/05/12 06:29:23;;;;;;;6.80;3.78;;;17.20;99.90;;;;;;5065512;28;20190;-71
2021/05/12 06:31:50;;;;;;;4.65;3.83;;;17.30;99.90;;;;;;5066293;28;20710;-71
2021/05/12 06:34:16;;;;;;;4.32;3.88;;;17.30;99.90;;;;;;5049694;28;20215;-71
2021/05/12 06:36:42;;;;;;;4.53;3.90;;;17.40;99.90;;;;;;5061958;28;20826;-71
2021/05/12 06:39:08;;;;;;;4.47;3.55;;;17.30;99.90;;;;;;5067517;28;20267;-71
2021/05/12 06:41:35;;;;;;;7.28;4.03;;;17.20;99.90;;;;;;5065725;28;20619;-74
2021/05/12 06:44:02;;;;;;;5.35;4.60;;;17.20;99.90;;;;;;5059840;28;20190;-71
2021/05/12 06:46:29;;;;;;;5.30;3.40;;;17.20;99.90;;;;;;5055543;28;20202;-71
2021/05/12 06:48:55;;;;;;;6.03;4.25;;;17.10;99.90;;;;;;5067018;28;20718;-71
2021/05/12 06:51:21;;;;;;;5.25;3.83;;;17.20;99.90;;;;;;5052449;28;20191;-71
2021/05/12 06:53:47;;;;;;;4.40;4.00;;;17.20;99.90;;;;;;5062453;28;20699;-71
2021/05/12 06:56:14;;;;;;;6.07;4.10;;;17.20;99.90;;;;;;5056839;28;20191;-69
2021/05/12 06:58:41;;;;;;;6.43;4.10;;;17.30;99.90;;;;;;5055699;28;20198;-72
2021/05/12 07:01:09;;;;;;;4.90;4.25;;;17.40;99.90;;;;;;5057048;28;20202;-70
2021/05/12 07:03:35;;;;;;;5.35;4.43;;;17.50;99.90;;;;;;5054298;28;20201;-70
2021/05/12 07:06:02;;;;;;;6.75;4.63;;;17.40;99.90;;;;;;5062848;28;20214;-70
2021/05/12 07:08:28;;;;;;;5.97;4.18;;;17.40;99.90;;;;;;5052600;28;20206;-70
2021/05/12 07:10:54;;;;;;;6.30;4.72;;;17.30;99.90;;;;;;5068717;28;20210;-70
2021/05/12 07:13:21;;;;;;;5.13;4.15;;;17.30;99.90;;;;;;5063520;28;20218;-70
2021/05/12 07:15:47;;;;;;;4.97;4.35;;;17.20;99.90;;;;;;5063380;28;20198;-70
2021/05/12 07:18:14;;;;;;;5.13;4.28;;;17.20;99.90;;;;;;5054965;28;20654;-70
2021/05/12 07:20:40;;;;;;;5.63;5.03;;;17.20;99.90;;;;;;5059122;28;20241;-71
2021/05/12 07:23:08;;;;;;;6.35;4.22;;;17.20;99.90;;;;;;5073557;28;20201;-71
2021/05/12 07:25:35;;;;;;;5.72;4.28;;;17.10;99.90;;;;;;5059564;28;20191;-70
2021/05/12 07:28:01;;;;;;;7.25;4.38;;;17.10;99.90;;;;;;5056836;28;20198;-70
2021/05/12 07:30:28;;;;;;;5.85;5.05;;;17.10;99.90;;;;;;5062373;28;20209;-70
2021/05/12 07:32:54;;;;;;;6.03;5.50;;;17.10;99.90;;;;;;5072544;28;20206;-71
2021/05/12 07:35:22;;;;;;;9.13;5.43;;;17.20;99.90;;;;;;5069799;28;20219;-70
2021/05/12 07:37:48;;;;;;;6.38;4.40;;;17.10;99.90;;;;;;5054480;28;20658;-70
2021/05/12 07:40:15;;;;;;;3.72;3.42;;;17.10;99.90;;;;;;5072039;28;20209;-70
2021/05/12 07:42:44;;;;;;;6.30;3.40;;;17.20;99.90;;;;;;5072045;28;20198;-70
2021/05/12 07:45:12;;;;;;;4.75;3.63;;;17.20;99.90;;;;;;5056330;28;20199;-70
2021/05/12 07:47:38;;;;;;;3.65;3.35;;;17.30;99.90;;;;;;5072368;28;20202;-70
2021/05/12 07:50:06;;;;;;;4.50;3.60;;;17.40;99.90;;;;;;5065824;28;20236;-70
2021/05/12 07:52:33;;;;;;;7.07;4.22;;;17.50;99.90;;;;;;5073927;28;20198;-70
2021/05/12 07:54:59;;;;;;;6.88;3.60;;;17.60;99.90;;;;;;5055213;28;20222;-70
2021/05/12 07:57:25;;;;;;;4.80;3.63;;;17.70;99.90;;;;;;5070544;28;20682;-70
2021/05/12 07:59:51;;;;;;;3.72;3.38;;;17.80;99.90;;;;;;5053264;28;20257;-70
2021/05/12 08:02:18;;;;;;;4.63;2.97;;;17.80;99.90;;;;;;5066247;28;20694;-71
2021/05/12 08:04:44;;;;;;;5.05;2.90;;;17.90;99.90;;;;;;5072480;28;20228;-70
2021/05/12 08:07:10;;;;;;;5.25;3.20;;;17.90;99.90;;;;;;5072431;28;20310;-70
2021/05/12 08:09:37;;;;;;;7.80;3.60;;;17.90;99.90;;;;;;5062926;28;20202;-70
2021/05/12 08:12:04;;;;;;;3.22;2.25;;;18.00;99.90;;;;;;5069957;28;20202;-71
2021/05/12 08:14:31;;;;;;;6.05;2.42;;;18.20;99.90;;;;;;5070984;28;20236;-70
2021/05/12 08:16:57;;;;;;;5.70;3.35;;;18.30;99.90;;;;;;5068554;28;20272;-70
2021/05/12 08:19:23;;;;;;;3.17;2.63;;;18.50;99.90;;;;;;5062214;28;20217;-70
2021/05/12 08:21:50;;;;;;;3.35;3.05;;;18.70;99.90;;;;;;5059706;28;20199;-70
2021/05/12 08:24:16;;;;;;;4.00;2.92;;;18.90;99.90;;;;;;5063664;28;20579;-69
2021/05/12 08:26:43;;;;;;;5.97;2.70;;;19.00;99.90;;;;;;5055286;28;20233;-70
2021/05/12 08:29:09;;;;;;;2.35;2.15;;;19.20;99.90;;;;;;5058067;28;20291;-70
2021/05/12 08:31:39;;;;;;;5.65;2.70;;;19.30;99.90;;;;;;5053881;28;20529;-70
2021/05/12 08:34:06;;;;;;;3.20;2.47;;;19.40;99.90;;;;;;5055421;28;20221;-70
2021/05/12 08:36:33;;;;;;;3.72;2.60;;;19.50;99.90;;;;;;5055515;28;20202;-69
2021/05/12 08:39:00;;;;;;;5.88;4.43;;;19.50;99.90;;;;;;5057978;28;20199;-69
2021/05/12 08:41:26;;;;;;;5.68;2.97;;;19.60;99.90;;;;;;5055381;28;20194;-72
2021/05/12 08:43:54;;;;;;;2.95;1.98;;;19.60;99.90;;;;;;5058084;28;20291;-69
2021/05/12 08:46:21;;;;;;;2.35;1.77;;;19.70;99.90;;;;;;5059749;28;20648;-69
2021/05/12 08:48:47;;;;;;;3.65;2.50;;;19.70;99.90;;;;;;5070706;28;20236;-69
2021/05/12 08:51:14;;;;;;;3.95;2.45;;;19.80;99.90;;;;;;5051984;28;20264;-70
2021/05/12 08:53:40;;;;;;;4.32;1.85;;;19.80;99.90;;;;;;5059095;28;20542;-70
2021/05/12 08:56:07;;;;;;;6.45;2.10;;;19.90;99.90;;;;;;5057953;28;20222;-69
2021/05/12 08:58:33;;;;;;;4.50;2.10;;;19.90;99.90;;;;;;5068364;28;20205;-70
2021/05/12 09:01:01;;;;;;;1.95;1.75;;;20.00;99.90;;;;;;5067945;28;20202;-70
2021/05/12 09:03:27;;;;;;;4.03;2.40;;;20.00;99.90;;;;;;5068537;28;20202;-69
2021/05/12 09:05:56;;;;;;;4.38;1.67;;;20.10;99.60;;;;;;5071713;28;20538;-70
2021/05/12 09:08:25;;;;;;;3.65;2.38;;;20.10;99.40;;;;;;5070515;28;20294;-70
2021/05/12 09:10:52;;;;;;;1.83;1.73;;;20.10;99.40;;;;;;5075522;28;20202;-71
2021/05/12 09:13:29;;;;;;;2.05;1.70;;;20.10;98.70;;;;;;5055969;28;20636;-70
2021/05/12 09:15:56;;;;;;;2.97;1.73;;;20.10;99.30;;;;;;5051826;28;20745;-70
2021/05/12 09:18:29;;;;;;;3.45;1.33;;;20.20;99.70;;;;;;5059548;28;20639;-70
2021/05/12 09:20:55;;;;;;;3.47;1.90;;;20.20;99.80;;;;;;5070980;28;20574;-71
2021/05/12 09:23:25;;;;;;;5.20;2.50;;;20.20;99.30;;;;;;5073645;28;20201;-70
2021/05/12 09:25:54;;;;;;;3.00;2.30;;;20.20;98.90;;;;;;5058540;28;21113;-69
2021/05/12 09:28:22;;;;;;;5.00;2.00;;;20.20;99.00;;;;;;5051241;28;20199;-69
2021/05/12 09:30:49;;;;;;;4.05;2.22;;;20.20;99.40;;;;;;5051066;28;20202;-69
2021/05/12 09:33:26;;;;;;;3.55;2.15;;;20.10;99.10;;;;;;5073356;28;20586;-69
2021/05/12 09:35:53;;;;;;;4.30;2.00;;;20.10;99.10;;;;;;5068953;28;20202;-70
2021/05/12 09:38:22;;;;;;;4.65;2.10;;;20.00;99.70;;;;;;5071169;28;20194;-69
2021/05/12 09:41:12;;;;;;;5.43;1.90;;;20.00;99.60;;;;;;5070211;28;20256;-69
2021/05/12 09:43:46;;;;;;;4.18;1.83;;;19.90;99.90;;;;;;5070709;28;20698;-70
2021/05/12 09:46:32;;;;;;;3.17;1.85;;;20.00;99.90;;;;;;5061784;28;20296;-70
2021/05/12 09:49:17;;;;;;;7.60;3.92;;;19.90;99.60;;;;;;5057726;28;20251;-69
2021/05/12 09:51:48;;;;;;;3.35;2.55;;;20.00;97.00;;;;;;5057384;28;20285;-69
2021/05/12 09:54:18;;;;;;;6.45;3.97;;;20.00;98.80;;;;;;5081718;28;20209;-69
2021/05/12 09:56:47;;;;;;;9.43;3.50;;;20.10;98.60;;;;;;5085210;28;20198;-69
2021/05/12 09:59:16;;;;;;;4.03;2.22;;;20.10;98.20;;;;;;5070566;28;20213;-70
2021/05/12 10:01:50;;;;;;;6.55;2.38;;;20.10;98.50;;;;;;5069398;28;20202;-70
2021/05/12 10:04:42;;;;;;;6.82;2.00;;;20.10;98.50;;;;;;5070375;28;20243;-70
2021/05/12 10:07:21;;;;;;;3.70;2.22;;;20.10;98.80;;;;;;5047033;28;20209;-70
2021/05/12 10:09:49;;;;;;;5.05;2.10;;;20.10;98.80;;;;;;5076403;28;20222;-69
2021/05/12 10:12:17;;;;;;;6.00;2.83;;;20.10;98.90;;;;;;5070220;28;20267;-70
2021/05/12 10:14:45;;;;;;;2.35;1.80;;;20.10;98.90;;;;;;5070537;28;20301;-69
2021/05/12 10:17:13;;;;;;;3.47;2.35;;;20.10;98.90;;;;;;5070623;28;20247;-69
2021/05/12 10:19:41;;;;;;;3.92;2.10;;;20.10;98.90;;;;;;5075806;28;20218;-70
2021/05/12 10:22:08;;;;;;;3.88;2.35;;;20.10;98.80;;;;;;5050278;28;20206;-69
2021/05/12 10:24:38;;;;;;;5.03;2.17;;;20.10;99.10;;;;;;5050091;28;20195;-70
2021/05/12 10:27:11;;;;;;;3.28;1.90;;;20.10;99.10;;;;;;5050701;28;20199;-69
2021/05/12 10:29:39;;;;;;;1.85;1.65;;;20.10;99.20;;;;;;5050031;28;20214;-70
2021/05/12 10:32:19;;;;;;;2.13;1.60;;;20.00;99.00;;;;;;5050278;28;20252;-71
2021/05/12 10:34:48;;;;;;;2.20;2.00;;;20.00;98.70;;;;;;5052013;28;20241;-71
2021/05/12 10:37:23;;;;;;;5.13;2.10;;;20.10;99.10;;;;;;5068648;28;20197;-71
2021/05/12 10:39:52;;;;;;;2.92;1.70;;;20.00;99.10;;;;;;5090337;28;20247;-69
2021/05/12 10:42:43;;;;;;;3.03;2.17;;;20.10;99.30;;;;;;5089949;28;20201;-70
2021/05/12 10:45:10;;;;;;;2.85;2.00;;;20.10;98.90;;;;;;5083339;28;20198;-71
2021/05/12 10:47:37;;;;;;;3.42;2.00;;;20.10;99.30;;;;;;5093238;28;20262;-70
2021/05/12 10:50:05;;;;;;;2.97;2.17;;;20.00;99.20;;;;;;5090658;28;20212;-70
2021/05/12 10:52:31;;;;;;;3.38;2.85;;;20.00;99.30;;;;;;5073827;28;20542;-71
2021/05/12 10:54:58;;;;;;;9.75;4.85;;;20.00;99.20;;;;;;5074570;28;20224;-71
2021/05/12 10:57:47;;;;;;;17.23;6.45;;;19.90;96.00;;;;;;5074007;28;20216;-69
2021/05/12 11:00:15;;;;;;;53.38;9.75;;;19.50;94.10;;;;;;5071576;28;20205;-69
2021/05/12 11:03:01;;;;;;;23.67;7.93;;;19.30;94.60;;;;;;5068191;28;20612;-68
2021/05/12 11:05:43;;;;;;;26.75;6.03;;;19.50;95.20;;;;;;5074182;28;20569;-69
2021/05/12 11:08:16;;;;;;;15.93;4.53;;;19.80;95.70;;;;;;5070568;28;20249;-69
2021/05/12 11:10:57;;;;;;;19.10;5.05;;;20.00;95.50;;;;;;5063149;28;20496;-68
2021/05/12 11:13:25;;;;;;;9.80;3.92;;;20.10;95.30;;;;;;5073694;28;20194;-68
2021/05/12 11:15:53;;;;;;;18.90;3.53;;;20.20;95.60;;;;;;5059658;28;20202;-68
2021/05/12 11:18:51;;;;;;;16.30;3.83;;;20.20;96.00;;;;;;5072794;28;20661;-71
2021/05/12 11:21:27;;;;;;;8.15;3.20;;;20.10;95.80;;;;;;5061190;28;20260;-68
2021/05/12 11:24:12;;;;;;;9.43;3.30;;;20.20;96.00;;;;;;5072933;28;20569;-68
2021/05/12 11:26:50;;;;;;;16.15;4.30;;;20.20;95.80;;;;;;5068585;28;20194;-68
2021/05/12 11:32:07;;;;;;;9.95;3.33;;;20.20;96.40;;;;;;5071875;28;20344;-70
2021/05/12 11:34:35;;;;;;;6.40;3.63;;;20.10;96.70;;;;;;5053207;28;20220;-70
2021/05/12 11:37:06;;;;;;;6.40;2.30;;;20.10;96.70;;;;;;5062495;28;20205;-69
2021/05/12 11:39:33;;;;;;;5.00;2.42;;;20.10;97.00;;;;;;5072417;28;20284;-70
2021/05/12 11:42:00;;;;;;;4.65;2.13;;;20.00;97.20;;;;;;5072553;28;20206;-70
2021/05/12 11:44:26;;;;;;;6.85;2.83;;;20.00;97.40;;;;;;5072902;28;20194;-70
2021/05/12 11:46:52;;;;;;;3.78;2.38;;;20.00;97.40;;;;;;5055364;28;20214;-70
2021/05/12 11:49:20;;;;;;;2.65;2.30;;;20.00;97.70;;;;;;5064970;28;20186;-71
2021/05/12 11:51:48;;;;;;;3.15;2.28;;;19.90;97.80;;;;;;5073008;28;20604;-71
2021/05/12 11:54:16;;;;;;;6.63;2.78;;;19.90;97.80;;;;;;5072795;28;20229;-71
2021/05/12 11:56:44;;;;;;;3.42;2.20;;;19.90;98.00;;;;;;5053548;28;20236;-70
2021/05/12 11:59:16;;;;;;;3.40;2.47;;;19.90;98.20;;;;;;5068113;28;20208;-72
2021/05/12 12:01:44;;;;;;;2.58;2.22;;;19.80;98.10;;;;;;5061382;28;20195;-71
2021/05/12 12:04:19;;;;;;;7.45;2.35;;;19.80;98.30;;;;;;5052557;28;20736;-71
2021/05/12 12:06:48;;;;;;;7.85;3.10;;;19.80;98.50;;;;;;5057308;28;20194;-71
2021/05/12 12:09:16;;;;;;;4.45;2.22;;;19.80;98.70;;;;;;5069970;28;20198;-71
2021/05/12 12:11:43;;;;;;;3.05;2.70;;;19.80;98.90;;;;;;5052318;28;20248;-70
2021/05/12 12:14:11;;;;;;;6.35;3.33;;;19.70;99.10;;;;;;5052250;28;20547;-70
2021/05/12 12:16:40;;;;;;;6.05;3.10;;;19.70;99.40;;;;;;5058135;28;20187;-70
2021/05/12 12:19:10;;;;;;;5.00;2.10;;;19.70;99.50;;;;;;5071463;28;20321;-70
2021/05/12 12:21:38;;;;;;;6.43;2.50;;;19.70;99.70;;;;;;5072517;28;20239;-71
2021/05/12 12:24:08;;;;;;;2.45;2.15;;;19.70;99.80;;;;;;5068490;28;20194;-70
2021/05/12 12:26:36;;;;;;;2.30;2.10;;;19.70;99.80;;;;;;5071786;28;20657;-71
2021/05/12 12:29:05;;;;;;;3.90;2.15;;;19.70;99.80;;;;;;5071930;28;20205;-71
2021/05/12 12:31:37;;;;;;;2.30;2.00;;;19.70;99.90;;;;;;5072125;28;20198;-71
2021/05/12 12:34:19;;;;;;;3.47;2.35;;;19.70;99.90;;;;;;5070785;28;20203;-71
2021/05/12 12:36:57;;;;;;;3.38;2.22;;;19.60;99.90;;;;;;5056331;28;20198;-71
2021/05/12 12:39:48;;;;;;;2.60;2.40;;;19.70;99.90;;;;;;5071886;28;20198;-70
2021/05/12 12:42:17;;;;;;;4.40;3.28;;;19.60;99.90;;;;;;5066586;28;20210;-70
2021/05/12 12:44:45;;;;;;;2.50;2.30;;;19.70;99.90;;;;;;5065283;28;20205;-70
2021/05/12 12:47:15;;;;;;;4.75;3.58;;;19.70;99.90;;;;;;5070031;28;20327;-70
2021/05/12 12:49:46;;;;;;;2.55;2.22;;;19.70;99.90;;;;;;5056907;28;20594;-70
2021/05/12 12:52:14;;;;;;;3.05;2.30;;;19.70;99.90;;;;;;5068220;28;20248;-71
2021/05/12 12:54:47;;;;;;;6.20;2.72;;;19.70;99.90;;;;;;5071546;28;20257;-70